sensor_id;sensor_type;location;lat;lon;timestamp;temperature;humidity
39665;DHT22;26679;50.872;4.332;2023-08-01T00:01:37;17.30;99.90
39665;DHT22;26679;50.872;4.332;2023-08-01T00:04:03;17.40;99.90
39665;DHT22;26679;50.872;4.332;2023-08-01T00:06:28;17.30;99.90
39665;DHT22;26679;50.872;4.332;2023-08-01T00:08:54;17.30;99.90
39665;DHT22;26679;50.872;4.332;2023-08-01T00:11:20;17.20;99.90
39665;DHT22;26679;50.872;4.332;2023-08-01T00:13:45;17.40;99.90
39665;DHT22;26679;50.872;4.332;2023-08-01T00:16:11;17.30;99.90
39665;DHT22;26679;50.872;4.332;2023-08-01T00:18:36;17.30;99.90
39665;DHT22;26679;50.872;4.332;2023-08-01T00:21:02;17.30;99.90
39665;DHT22;26679;50.872;4.332;2023-08-01T00:23:28;17.60;99.90
39665;DHT22;26679;50.872;4.332;2023-08-01T00:25:53;17.20;99.90
39665;DHT22;26679;50.872;4.332;2023-08-01T00:28:19;17.30;99.90
39665;DHT22;26679;50.872;4.332;2023-08-01T00:30:44;17.30;99.90
39665;DHT22;26679;50.872;4.332;2023-08-01T00:33:10;17.20;99.90
39665;DHT22;26679;50.872;4.332;2023-08-01T00:35:36;17.20;99.90
39665;DHT22;26679;50.872;4.332;2023-08-01T00:38:02;17.20;99.90
39665;DHT22;26679;50.872;4.332;2023-08-01T00:40:30;17.20;99.90
39665;DHT22;26679;50.872;4.332;2023-08-01T00:42:56;17.20;99.90
39665;DHT22;26679;50.872;4.332;2023-08-01T00:45:28;17.10;99.90
39665;DHT22;26679;50.872;4.332;2023-08-01T00:47:55;17.30;99.90
39665;DHT22;26679;50.872;4.332;2023-08-01T00:50:21;17.10;99.90
39665;DHT22;26679;50.872;4.332;2023-08-01T00:52:48;17.10;99.90
39665;DHT22;26679;50.872;4.332;2023-08-01T00:55:16;17.00;99.90
39665;DHT22;26679;50.872;4.332;2023-08-01T00:57:49;17.20;99.90
39665;DHT22;26679;50.872;4.332;2023-08-01T01:00:14;17.10;99.90
39665;DHT22;26679;50.872;4.332;2023-08-01T01:08:16;16.80;99.90
39665;DHT22;26679;50.872;4.332;2023-08-01T01:10:51;16.60;99.90
39665;DHT22;26679;50.872;4.332;2023-08-01T01:13:30;15.50;99.90
39665;DHT22;26679;50.872;4.332;2023-08-01T01:16:07;16.80;99.90
39665;DHT22;26679;50.872;4.332;2023-08-01T01:21:53;16.90;99.90
39665;DHT22;26679;50.872;4.332;2023-08-01T01:24:25;16.90;99.90
39665;DHT22;26679;50.872;4.332;2023-08-01T01:27:18;16.80;99.90
39665;DHT22;26679;50.872;4.332;2023-08-01T01:42:38;16.90;99.90
39665;DHT22;26679;50.872;4.332;2023-08-01T01:45:04;16.90;99.90
39665;DHT22;26679;50.872;4.332;2023-08-01T01:50:05;17.00;99.90
39665;DHT22;26679;50.872;4.332;2023-08-01T01:52:30;17.00;99.90
39665;DHT22;26679;50.872;4.332;2023-08-01T01:57:31;17.00;99.90
39665;DHT22;26679;50.872;4.332;2023-08-01T01:59:57;17.00;99.90
39665;DHT22;26679;50.872;4.332;2023-08-01T02:20:21;16.70;99.90
39665;DHT22;26679;50.872;4.332;2023-08-01T02:22:47;16.70;99.90
39665;DHT22;26679;50.872;4.332;2023-08-01T02:30:23;16.80;99.90
39665;DHT22;26679;50.872;4.332;2023-08-01T02:32:49;16.70;99.90
39665;DHT22;26679;50.872;4.332;2023-08-01T02:45:34;16.70;99.90
39665;DHT22;26679;50.872;4.332;2023-08-01T02:48:02;16.80;99.90
39665;DHT22;26679;50.872;4.332;2023-08-01T03:32:07;16.80;99.90
39665;DHT22;26679;50.872;4.332;2023-08-01T03:34:32;16.60;99.90
39665;DHT22;26679;50.872;4.332;2023-08-01T03:36:58;16.90;99.90
39665;DHT22;26679;50.872;4.332;2023-08-01T03:39:24;16.90;99.90
39665;DHT22;26679;50.872;4.332;2023-08-01T03:41:51;16.80;99.90
39665;DHT22;26679;50.872;4.332;2023-08-01T03:44:17;16.90;99.90
39665;DHT22;26679;50.872;4.332;2023-08-01T03:46:43;16.90;99.90
39665;DHT22;26679;50.872;4.332;2023-08-01T03:49:08;16.90;99.90
39665;DHT22;26679;50.872;4.332;2023-08-01T03:51:34;16.90;99.90
39665;DHT22;26679;50.872;4.332;2023-08-01T03:54:00;16.80;99.90
39665;DHT22;26679;50.872;4.332;2023-08-01T03:56:25;16.80;99.90
39665;DHT22;26679;50.872;4.332;2023-08-01T03:58:52;16.80;99.90
39665;DHT22;26679;50.872;4.332;2023-08-01T04:01:17;16.60;99.90
39665;DHT22;26679;50.872;4.332;2023-08-01T04:03:43;16.60;99.90
39665;DHT22;26679;50.872;4.332;2023-08-01T04:06:08;16.60;99.90
39665;DHT22;26679;50.872;4.332;2023-08-01T04:08:34;16.60;99.90
39665;DHT22;26679;50.872;4.332;2023-08-01T04:19:52;16.50;99.90
39665;DHT22;26679;50.872;4.332;2023-08-01T04:22:37;16.50;99.90
39665;DHT22;26679;50.872;4.332;2023-08-01T04:25:02;16.40;99.90
39665;DHT22;26679;50.872;4.332;2023-08-01T04:27:57;16.40;99.90
39665;DHT22;26679;50.872;4.332;2023-08-01T04:30:31;15.50;99.90
39665;DHT22;26679;50.872;4.332;2023-08-01T04:33:00;16.40;99.90
39665;DHT22;26679;50.872;4.332;2023-08-01T04:35:31;16.50;99.90
39665;DHT22;26679;50.872;4.332;2023-08-01T04:38:06;16.60;99.90
39665;DHT22;26679;50.872;4.332;2023-08-01T04:40:41;16.60;99.90
39665;DHT22;26679;50.872;4.332;2023-08-01T04:43:06;16.10;99.90
39665;DHT22;26679;50.872;4.332;2023-08-01T04:45:32;16.40;99.90
39665;DHT22;26679;50.872;4.332;2023-08-01T04:48:00;16.60;99.90
39665;DHT22;26679;50.872;4.332;2023-08-01T04:50:26;17.10;99.90
39665;DHT22;26679;50.872;4.332;2023-08-01T04:52:51;16.50;99.90
39665;DHT22;26679;50.872;4.332;2023-08-01T04:55:17;16.40;99.90
39665;DHT22;26679;50.872;4.332;2023-08-01T04:57:53;16.50;99.90
39665;DHT22;26679;50.872;4.332;2023-08-01T05:05:55;16.50;99.90
39665;DHT22;26679;50.872;4.332;2023-08-01T05:08:24;16.80;99.90
39665;DHT22;26679;50.872;4.332;2023-08-01T05:11:00;17.10;99.90
39665;DHT22;26679;50.872;4.332;2023-08-01T05:13:55;16.60;99.90
39665;DHT22;26679;50.872;4.332;2023-08-01T05:16:20;16.70;99.90
39665;DHT22;26679;50.872;4.332;2023-08-01T05:18:46;16.70;99.90
39665;DHT22;26679;50.872;4.332;2023-08-01T05:21:11;16.80;99.90
39665;DHT22;26679;50.872;4.332;2023-08-01T05:23:40;16.70;99.90
39665;DHT22;26679;50.872;4.332;2023-08-01T05:26:05;16.80;99.90
39665;DHT22;26679;50.872;4.332;2023-08-01T05:28:31;16.80;99.90
39665;DHT22;26679;50.872;4.332;2023-08-01T05:30:56;16.80;99.90
39665;DHT22;26679;50.872;4.332;2023-08-01T05:33:22;16.70;99.90
39665;DHT22;26679;50.872;4.332;2023-08-01T05:35:48;16.70;99.90
39665;DHT22;26679;50.872;4.332;2023-08-01T05:38:14;16.80;99.90
39665;DHT22;26679;50.872;4.332;2023-08-01T05:40:39;16.80;99.90
39665;DHT22;26679;50.872;4.332;2023-08-01T05:43:05;16.80;99.90
39665;DHT22;26679;50.872;4.332;2023-08-01T05:45:36;16.80;99.90
39665;DHT22;26679;50.872;4.332;2023-08-01T05:48:02;16.80;99.90
39665;DHT22;26679;50.872;4.332;2023-08-01T05:50:27;16.90;99.90
39665;DHT22;26679;50.872;4.332;2023-08-01T05:52:53;17.00;99.90
39665;DHT22;26679;50.872;4.332;2023-08-01T05:55:18;17.20;99.90
39665;DHT22;26679;50.872;4.332;2023-08-01T05:57:45;17.20;99.90
39665;DHT22;26679;50.872;4.332;2023-08-01T06:02:51;17.40;99.90
39665;DHT22;26679;50.872;4.332;2023-08-01T06:05:19;17.40;99.90
39665;DHT22;26679;50.872;4.332;2023-08-01T06:07:45;17.50;99.90
39665;DHT22;26679;50.872;4.332;2023-08-01T06:10:11;17.50;99.90
39665;DHT22;26679;50.872;4.332;2023-08-01T06:15:10;17.40;99.90
39665;DHT22;26679;50.872;4.332;2023-08-01T06:20:11;17.30;99.90
39665;DHT22;26679;50.872;4.332;2023-08-01T06:22:37;17.20;99.90
39665;DHT22;26679;50.872;4.332;2023-08-01T06:25:03;17.30;99.90
39665;DHT22;26679;50.872;4.332;2023-08-01T06:27:29;17.40;99.90
39665;DHT22;26679;50.872;4.332;2023-08-01T06:29:54;17.50;99.90
39665;DHT22;26679;50.872;4.332;2023-08-01T06:32:20;17.60;99.90
39665;DHT22;26679;50.872;4.332;2023-08-01T06:34:50;17.60;99.90
39665;DHT22;26679;50.872;4.332;2023-08-01T06:37:21;17.60;99.90
39665;DHT22;26679;50.872;4.332;2023-08-01T06:39:46;17.70;99.90
39665;DHT22;26679;50.872;4.332;2023-08-01T06:42:12;17.50;99.90
39665;DHT22;26679;50.872;4.332;2023-08-01T06:44:43;17.50;99.90
39665;DHT22;26679;50.872;4.332;2023-08-01T06:47:12;17.50;99.90
39665;DHT22;26679;50.872;4.332;2023-08-01T06:49:40;17.50;99.90
39665;DHT22;26679;50.872;4.332;2023-08-01T06:55:18;18.10;99.90
39665;DHT22;26679;50.872;4.332;2023-08-01T06:57:44;17.80;99.90
39665;DHT22;26679;50.872;4.332;2023-08-01T07:00:09;17.80;99.90
39665;DHT22;26679;50.872;4.332;2023-08-01T07:02:36;17.90;99.90
39665;DHT22;26679;50.872;4.332;2023-08-01T07:05:02;18.10;99.90
39665;DHT22;26679;50.872;4.332;2023-08-01T07:07:28;18.20;99.90
39665;DHT22;26679;50.872;4.332;2023-08-01T07:09:53;18.20;99.90
39665;DHT22;26679;50.872;4.332;2023-08-01T07:12:20;18.30;99.90
39665;DHT22;26679;50.872;4.332;2023-08-01T07:14:48;18.40;99.90
39665;DHT22;26679;50.872;4.332;2023-08-01T07:17:20;18.30;99.90
39665;DHT22;26679;50.872;4.332;2023-08-01T07:19:45;18.30;99.90
39665;DHT22;26679;50.872;4.332;2023-08-01T07:22:11;18.30;99.90
39665;DHT22;26679;50.872;4.332;2023-08-01T07:24:37;18.40;99.90
39665;DHT22;26679;50.872;4.332;2023-08-01T07:27:02;18.10;99.90
39665;DHT22;26679;50.872;4.332;2023-08-01T07:29:28;18.10;99.90
39665;DHT22;26679;50.872;4.332;2023-08-01T07:31:54;18.20;99.90
39665;DHT22;26679;50.872;4.332;2023-08-01T07:34:19;18.10;99.90
39665;DHT22;26679;50.872;4.332;2023-08-01T07:36:48;18.20;99.90
39665;DHT22;26679;50.872;4.332;2023-08-01T07:39:14;18.20;99.90
39665;DHT22;26679;50.872;4.332;2023-08-01T07:41:41;18.40;99.90
39665;DHT22;26679;50.872;4.332;2023-08-01T07:44:06;18.40;99.90
39665;DHT22;26679;50.872;4.332;2023-08-01T07:46:32;18.40;99.90
39665;DHT22;26679;50.872;4.332;2023-08-01T07:48:58;18.30;99.90
39665;DHT22;26679;50.872;4.332;2023-08-01T07:51:25;18.30;99.90
39665;DHT22;26679;50.872;4.332;2023-08-01T07:53:51;18.30;99.90
39665;DHT22;26679;50.872;4.332;2023-08-01T07:56:16;18.50;99.90
39665;DHT22;26679;50.872;4.332;2023-08-01T07:58:42;18.50;99.90
39665;DHT22;26679;50.872;4.332;2023-08-01T08:01:08;18.60;99.90
39665;DHT22;26679;50.872;4.332;2023-08-01T08:03:33;18.50;99.90
39665;DHT22;26679;50.872;4.332;2023-08-01T08:05:59;18.50;99.90
39665;DHT22;26679;50.872;4.332;2023-08-01T08:08:25;18.60;99.90
39665;DHT22;26679;50.872;4.332;2023-08-01T08:10:52;18.80;99.90
39665;DHT22;26679;50.872;4.332;2023-08-01T08:13:17;19.00;99.90
39665;DHT22;26679;50.872;4.332;2023-08-01T08:15:43;19.00;99.90
39665;DHT22;26679;50.872;4.332;2023-08-01T08:18:08;18.90;99.90
39665;DHT22;26679;50.872;4.332;2023-08-01T08:20:40;18.80;99.90
39665;DHT22;26679;50.872;4.332;2023-08-01T08:23:07;18.90;99.90
39665;DHT22;26679;50.872;4.332;2023-08-01T08:25:36;19.10;99.90
39665;DHT22;26679;50.872;4.332;2023-08-01T08:28:02;19.00;99.90
39665;DHT22;26679;50.872;4.332;2023-08-01T08:30:28;18.70;99.90
39665;DHT22;26679;50.872;4.332;2023-08-01T08:32:53;19.20;99.90
39665;DHT22;26679;50.872;4.332;2023-08-01T08:35:22;19.30;99.90
39665;DHT22;26679;50.872;4.332;2023-08-01T08:37:47;19.30;99.90
39665;DHT22;26679;50.872;4.332;2023-08-01T08:40:13;19.20;99.90
39665;DHT22;26679;50.872;4.332;2023-08-01T08:42:39;19.30;99.90
39665;DHT22;26679;50.872;4.332;2023-08-01T08:45:05;19.50;99.90
39665;DHT22;26679;50.872;4.332;2023-08-01T08:47:31;19.60;99.90
39665;DHT22;26679;50.872;4.332;2023-08-01T08:50:00;19.80;99.90
39665;DHT22;26679;50.872;4.332;2023-08-01T08:52:26;19.70;99.90
39665;DHT22;26679;50.872;4.332;2023-08-01T08:54:52;19.70;99.90
39665;DHT22;26679;50.872;4.332;2023-08-01T08:57:18;19.80;99.90
39665;DHT22;26679;50.872;4.332;2023-08-01T08:59:44;19.70;99.90
39665;DHT22;26679;50.872;4.332;2023-08-01T09:02:10;19.80;99.90
39665;DHT22;26679;50.872;4.332;2023-08-01T09:04:35;19.90;99.90
39665;DHT22;26679;50.872;4.332;2023-08-01T09:07:06;20.00;99.90
39665;DHT22;26679;50.872;4.332;2023-08-01T09:09:33;20.00;99.90
39665;DHT22;26679;50.872;4.332;2023-08-01T09:11:59;20.10;99.90
39665;DHT22;26679;50.872;4.332;2023-08-01T09:14:25;19.80;99.90
39665;DHT22;26679;50.872;4.332;2023-08-01T09:16:50;19.80;99.90
39665;DHT22;26679;50.872;4.332;2023-08-01T09:19:19;19.80;99.90
39665;DHT22;26679;50.872;4.332;2023-08-01T09:21:45;20.00;99.90
39665;DHT22;26679;50.872;4.332;2023-08-01T09:24:11;20.30;99.90
39665;DHT22;26679;50.872;4.332;2023-08-01T09:26:37;20.90;99.90
39665;DHT22;26679;50.872;4.332;2023-08-01T09:29:03;20.80;99.90
39665;DHT22;26679;50.872;4.332;2023-08-01T09:31:32;21.00;99.90
39665;DHT22;26679;50.872;4.332;2023-08-01T09:33:59;21.10;99.90
39665;DHT22;26679;50.872;4.332;2023-08-01T09:36:25;21.20;99.90
39665;DHT22;26679;50.872;4.332;2023-08-01T09:38:51;21.10;99.90
39665;DHT22;26679;50.872;4.332;2023-08-01T09:41:19;21.10;99.90
39665;DHT22;26679;50.872;4.332;2023-08-01T09:43:46;21.00;99.90
39665;DHT22;26679;50.872;4.332;2023-08-01T09:46:12;20.90;99.90
39665;DHT22;26679;50.872;4.332;2023-08-01T09:48:37;21.10;99.90
39665;DHT22;26679;50.872;4.332;2023-08-01T09:51:10;21.40;99.90
39665;DHT22;26679;50.872;4.332;2023-08-01T09:53:46;21.30;99.90
39665;DHT22;26679;50.872;4.332;2023-08-01T09:56:12;21.10;99.90
39665;DHT22;26679;50.872;4.332;2023-08-01T09:58:41;21.00;99.90
39665;DHT22;26679;50.872;4.332;2023-08-01T10:01:07;21.10;99.90
39665;DHT22;26679;50.872;4.332;2023-08-01T10:03:32;21.60;99.90
39665;DHT22;26679;50.872;4.332;2023-08-01T10:05:58;22.40;99.90
39665;DHT22;26679;50.872;4.332;2023-08-01T10:08:24;23.30;99.90
39665;DHT22;26679;50.872;4.332;2023-08-01T10:10:50;23.20;99.90
39665;DHT22;26679;50.872;4.332;2023-08-01T10:13:16;22.70;99.90
39665;DHT22;26679;50.872;4.332;2023-08-01T10:15:42;22.70;99.90
39665;DHT22;26679;50.872;4.332;2023-08-01T10:18:08;22.40;99.90
39665;DHT22;26679;50.872;4.332;2023-08-01T10:20:36;22.20;99.90
39665;DHT22;26679;50.872;4.332;2023-08-01T10:23:02;22.30;99.90
39665;DHT22;26679;50.872;4.332;2023-08-01T10:25:28;22.80;99.90
39665;DHT22;26679;50.872;4.332;2023-08-01T10:27:58;22.60;99.90
39665;DHT22;26679;50.872;4.332;2023-08-01T10:30:27;22.20;99.90
39665;DHT22;26679;50.872;4.332;2023-08-01T10:32:58;22.30;99.90
39665;DHT22;26679;50.872;4.332;2023-08-01T10:35:35;22.40;99.90
39665;DHT22;26679;50.872;4.332;2023-08-01T10:38:07;22.70;99.90
39665;DHT22;26679;50.872;4.332;2023-08-01T10:40:33;22.80;99.90
39665;DHT22;26679;50.872;4.332;2023-08-01T10:42:59;22.70;99.90
39665;DHT22;26679;50.872;4.332;2023-08-01T10:45:24;22.70;99.90
39665;DHT22;26679;50.872;4.332;2023-08-01T10:47:53;23.00;99.90
39665;DHT22;26679;50.872;4.332;2023-08-01T10:50:19;23.00;99.90
39665;DHT22;26679;50.872;4.332;2023-08-01T10:52:45;23.30;99.90
39665;DHT22;26679;50.872;4.332;2023-08-01T10:55:11;23.10;99.90
39665;DHT22;26679;50.872;4.332;2023-08-01T10:57:55;23.00;99.90
39665;DHT22;26679;50.872;4.332;2023-08-01T11:00:22;22.80;99.90
39665;DHT22;26679;50.872;4.332;2023-08-01T11:02:48;22.90;99.90
39665;DHT22;26679;50.872;4.332;2023-08-01T11:05:14;23.10;99.90
39665;DHT22;26679;50.872;4.332;2023-08-01T11:07:40;23.60;99.90
39665;DHT22;26679;50.872;4.332;2023-08-01T11:12:34;24.60;98.80
39665;DHT22;26679;50.872;4.332;2023-08-01T11:15:01;25.50;97.80
39665;DHT22;26679;50.872;4.332;2023-08-01T11:17:26;25.80;96.80
39665;DHT22;26679;50.872;4.332;2023-08-01T11:19:59;25.90;96.70
39665;DHT22;26679;50.872;4.332;2023-08-01T11:22:27;25.10;97.30
39665;DHT22;26679;50.872;4.332;2023-08-01T11:24:53;24.60;98.00
39665;DHT22;26679;50.872;4.332;2023-08-01T11:27:19;24.20;98.10
39665;DHT22;26679;50.872;4.332;2023-08-01T11:29:44;23.80;98.20
39665;DHT22;26679;50.872;4.332;2023-08-01T11:32:10;23.40;98.30
39665;DHT22;26679;50.872;4.332;2023-08-01T11:34:40;23.40;98.40
39665;DHT22;26679;50.872;4.332;2023-08-01T11:37:12;24.00;98.10
39665;DHT22;26679;50.872;4.332;2023-08-01T11:39:38;24.20;97.50
39665;DHT22;26679;50.872;4.332;2023-08-01T11:42:04;24.40;96.80
39665;DHT22;26679;50.872;4.332;2023-08-01T11:44:30;24.80;96.20
39665;DHT22;26679;50.872;4.332;2023-08-01T11:46:55;24.50;97.00
39665;DHT22;26679;50.872;4.332;2023-08-01T11:49:21;24.40;96.60
39665;DHT22;26679;50.872;4.332;2023-08-01T11:51:47;24.60;96.50
39665;DHT22;26679;50.872;4.332;2023-08-01T11:54:13;25.50;95.40
39665;DHT22;26679;50.872;4.332;2023-08-01T11:56:39;26.20;95.00
39665;DHT22;26679;50.872;4.332;2023-08-01T11:59:08;26.90;94.20
39665;DHT22;26679;50.872;4.332;2023-08-01T12:01:37;27.10;94.50
39665;DHT22;26679;50.872;4.332;2023-08-01T12:04:03;27.20;94.80
39665;DHT22;26679;50.872;4.332;2023-08-01T12:06:30;27.60;94.10
39665;DHT22;26679;50.872;4.332;2023-08-01T12:09:05;27.20;94.10
39665;DHT22;26679;50.872;4.332;2023-08-01T12:11:30;26.40;95.00
39665;DHT22;26679;50.872;4.332;2023-08-01T12:14:14;25.80;95.30
39665;DHT22;26679;50.872;4.332;2023-08-01T12:16:41;25.40;95.40
39665;DHT22;26679;50.872;4.332;2023-08-01T12:19:07;24.90;96.20
39665;DHT22;26679;50.872;4.332;2023-08-01T12:21:33;24.40;96.60
39665;DHT22;26679;50.872;4.332;2023-08-01T12:23:59;24.90;96.50
39665;DHT22;26679;50.872;4.332;2023-08-01T12:26:25;24.60;96.60
39665;DHT22;26679;50.872;4.332;2023-08-01T12:28:51;24.30;97.10
39665;DHT22;26679;50.872;4.332;2023-08-01T12:31:17;24.20;97.40
39665;DHT22;26679;50.872;4.332;2023-08-01T12:33:43;23.80;97.70
39665;DHT22;26679;50.872;4.332;2023-08-01T12:36:09;23.50;97.60
39665;DHT22;26679;50.872;4.332;2023-08-01T12:38:34;23.30;97.80
39665;DHT22;26679;50.872;4.332;2023-08-01T12:41:00;23.00;98.00
39665;DHT22;26679;50.872;4.332;2023-08-01T12:43:26;22.70;98.30
39665;DHT22;26679;50.872;4.332;2023-08-01T12:45:52;22.60;98.80
39665;DHT22;26679;50.872;4.332;2023-08-01T12:48:18;22.40;99.60
39665;DHT22;26679;50.872;4.332;2023-08-01T12:50:47;22.20;99.80
39665;DHT22;26679;50.872;4.332;2023-08-01T12:53:14;22.20;99.90
39665;DHT22;26679;50.872;4.332;2023-08-01T12:55:44;21.80;99.90
39665;DHT22;26679;50.872;4.332;2023-08-01T12:58:13;21.30;99.90
39665;DHT22;26679;50.872;4.332;2023-08-01T13:00:42;20.80;99.90
39665;DHT22;26679;50.872;4.332;2023-08-01T13:03:08;20.60;99.90
39665;DHT22;26679;50.872;4.332;2023-08-01T13:05:37;20.90;99.90
39665;DHT22;26679;50.872;4.332;2023-08-01T13:08:03;21.00;99.90
39665;DHT22;26679;50.872;4.332;2023-08-01T13:10:29;21.10;99.90
39665;DHT22;26679;50.872;4.332;2023-08-01T13:12:55;21.30;99.90
39665;DHT22;26679;50.872;4.332;2023-08-01T13:15:20;21.90;99.90
39665;DHT22;26679;50.872;4.332;2023-08-01T13:17:46;23.80;99.90
39665;DHT22;26679;50.872;4.332;2023-08-01T13:20:11;25.90;98.40
39665;DHT22;26679;50.872;4.332;2023-08-01T13:22:37;27.40;96.00
39665;DHT22;26679;50.872;4.332;2023-08-01T13:25:03;28.60;94.70
39665;DHT22;26679;50.872;4.332;2023-08-01T13:27:29;29.20;93.70
39665;DHT22;26679;50.872;4.332;2023-08-01T13:30:07;29.30;93.50
39665;DHT22;26679;50.872;4.332;2023-08-01T13:32:33;29.60;93.00
39665;DHT22;26679;50.872;4.332;2023-08-01T13:34:59;29.40;93.00
39665;DHT22;26679;50.872;4.332;2023-08-01T13:37:24;29.60;92.00
39665;DHT22;26679;50.872;4.332;2023-08-01T13:39:51;28.10;92.00
39665;DHT22;26679;50.872;4.332;2023-08-01T13:42:17;26.40;92.20
39665;DHT22;26679;50.872;4.332;2023-08-01T13:44:42;25.30;93.20
39665;DHT22;26679;50.872;4.332;2023-08-01T13:47:08;25.10;94.00
39665;DHT22;26679;50.872;4.332;2023-08-01T13:49:34;25.20;93.60
39665;DHT22;26679;50.872;4.332;2023-08-01T13:51:59;25.70;92.60
39665;DHT22;26679;50.872;4.332;2023-08-01T13:54:25;26.10;92.90
39665;DHT22;26679;50.872;4.332;2023-08-01T13:56:51;26.30;92.40
39665;DHT22;26679;50.872;4.332;2023-08-01T13:59:17;26.00;93.20
39665;DHT22;26679;50.872;4.332;2023-08-01T14:01:42;25.50;93.40
39665;DHT22;26679;50.872;4.332;2023-08-01T14:04:08;25.10;93.90
39665;DHT22;26679;50.872;4.332;2023-08-01T14:06:33;24.50;94.50
39665;DHT22;26679;50.872;4.332;2023-08-01T14:08:59;24.10;94.70
39665;DHT22;26679;50.872;4.332;2023-08-01T14:11:24;23.80;94.90
39665;DHT22;26679;50.872;4.332;2023-08-01T14:13:50;23.30;95.30
39665;DHT22;26679;50.872;4.332;2023-08-01T14:16:15;22.60;95.10
39665;DHT22;26679;50.872;4.332;2023-08-01T14:18:42;22.40;95.70
39665;DHT22;26679;50.872;4.332;2023-08-01T14:21:08;22.20;96.00
39665;DHT22;26679;50.872;4.332;2023-08-01T14:23:33;22.10;96.00
39665;DHT22;26679;50.872;4.332;2023-08-01T14:25:59;22.00;95.90
39665;DHT22;26679;50.872;4.332;2023-08-01T14:28:24;21.60;96.30
39665;DHT22;26679;50.872;4.332;2023-08-01T14:30:50;21.60;96.60
39665;DHT22;26679;50.872;4.332;2023-08-01T14:33:16;21.40;96.90
39665;DHT22;26679;50.872;4.332;2023-08-01T14:35:41;21.40;97.40
39665;DHT22;26679;50.872;4.332;2023-08-01T14:38:07;21.30;97.70
39665;DHT22;26679;50.872;4.332;2023-08-01T14:40:33;21.50;97.80
39665;DHT22;26679;50.872;4.332;2023-08-01T14:43:01;21.60;97.90
39665;DHT22;26679;50.872;4.332;2023-08-01T14:45:26;21.80;98.10
39665;DHT22;26679;50.872;4.332;2023-08-01T14:47:52;21.90;97.70
39665;DHT22;26679;50.872;4.332;2023-08-01T14:50:18;21.90;97.90
39665;DHT22;26679;50.872;4.332;2023-08-01T14:52:43;21.90;98.10
39665;DHT22;26679;50.872;4.332;2023-08-01T14:55:09;21.90;98.20
39665;DHT22;26679;50.872;4.332;2023-08-01T14:57:43;22.00;98.40
39665;DHT22;26679;50.872;4.332;2023-08-01T15:00:09;22.10;98.20
39665;DHT22;26679;50.872;4.332;2023-08-01T15:02:35;22.00;98.90
39665;DHT22;26679;50.872;4.332;2023-08-01T15:05:01;21.50;99.70
39665;DHT22;26679;50.872;4.332;2023-08-01T15:07:27;21.20;99.90
39665;DHT22;26679;50.872;4.332;2023-08-01T15:09:52;21.20;99.90
39665;DHT22;26679;50.872;4.332;2023-08-01T15:12:20;21.30;99.90
39665;DHT22;26679;50.872;4.332;2023-08-01T15:14:54;21.00;99.90
39665;DHT22;26679;50.872;4.332;2023-08-01T15:17:21;20.80;99.90
39665;DHT22;26679;50.872;4.332;2023-08-01T15:19:47;20.40;99.90
39665;DHT22;26679;50.872;4.332;2023-08-01T15:22:13;20.00;99.90
39665;DHT22;26679;50.872;4.332;2023-08-01T15:24:51;19.90;99.90
39665;DHT22;26679;50.872;4.332;2023-08-01T15:27:16;19.80;99.90
39665;DHT22;26679;50.872;4.332;2023-08-01T15:29:44;19.60;99.90
39665;DHT22;26679;50.872;4.332;2023-08-01T15:32:10;19.40;99.90
39665;DHT22;26679;50.872;4.332;2023-08-01T15:34:35;19.30;99.90
39665;DHT22;26679;50.872;4.332;2023-08-01T15:37:01;19.20;99.90
39665;DHT22;26679;50.872;4.332;2023-08-01T15:39:27;19.30;99.90
39665;DHT22;26679;50.872;4.332;2023-08-01T15:41:52;19.40;99.90
39665;DHT22;26679;50.872;4.332;2023-08-01T15:44:18;19.60;99.90
39665;DHT22;26679;50.872;4.332;2023-08-01T15:46:43;19.70;99.90
39665;DHT22;26679;50.872;4.332;2023-08-01T15:49:09;19.70;99.90
39665;DHT22;26679;50.872;4.332;2023-08-01T15:51:34;19.70;99.90
39665;DHT22;26679;50.872;4.332;2023-08-01T15:54:00;19.50;99.90
39665;DHT22;26679;50.872;4.332;2023-08-01T15:56:25;19.50;99.90
39665;DHT22;26679;50.872;4.332;2023-08-01T15:58:51;19.40;99.90
39665;DHT22;26679;50.872;4.332;2023-08-01T16:01:17;19.50;99.90
39665;DHT22;26679;50.872;4.332;2023-08-01T16:03:43;19.50;99.90
39665;DHT22;26679;50.872;4.332;2023-08-01T16:06:10;19.40;99.90
39665;DHT22;26679;50.872;4.332;2023-08-01T16:08:36;19.50;99.90
39665;DHT22;26679;50.872;4.332;2023-08-01T16:11:01;19.60;99.90
39665;DHT22;26679;50.872;4.332;2023-08-01T16:13:27;19.80;99.90
39665;DHT22;26679;50.872;4.332;2023-08-01T16:15:53;20.00;99.90
39665;DHT22;26679;50.872;4.332;2023-08-01T16:18:18;20.10;99.90
39665;DHT22;26679;50.872;4.332;2023-08-01T16:20:46;20.60;99.90
39665;DHT22;26679;50.872;4.332;2023-08-01T16:23:11;21.60;99.90
39665;DHT22;26679;50.872;4.332;2023-08-01T16:25:37;22.70;99.90
39665;DHT22;26679;50.872;4.332;2023-08-01T16:28:03;23.10;99.90
39665;DHT22;26679;50.872;4.332;2023-08-01T16:30:29;23.80;99.90
39665;DHT22;26679;50.872;4.332;2023-08-01T16:32:56;24.40;99.90
39665;DHT22;26679;50.872;4.332;2023-08-01T16:35:21;24.30;99.90
39665;DHT22;26679;50.872;4.332;2023-08-01T16:37:48;23.90;99.90
39665;DHT22;26679;50.872;4.332;2023-08-01T16:40:14;23.50;99.90
39665;DHT22;26679;50.872;4.332;2023-08-01T16:42:40;23.40;99.90
39665;DHT22;26679;50.872;4.332;2023-08-01T16:45:06;23.60;99.90
39665;DHT22;26679;50.872;4.332;2023-08-01T16:47:32;24.10;99.90
39665;DHT22;26679;50.872;4.332;2023-08-01T16:49:58;24.70;99.90
39665;DHT22;26679;50.872;4.332;2023-08-01T16:52:24;24.50;99.90
39665;DHT22;26679;50.872;4.332;2023-08-01T16:54:50;24.70;99.90
39665;DHT22;26679;50.872;4.332;2023-08-01T16:57:15;24.50;99.90
39665;DHT22;26679;50.872;4.332;2023-08-01T16:59:41;23.80;99.90
39665;DHT22;26679;50.872;4.332;2023-08-01T17:02:07;23.30;99.90
39665;DHT22;26679;50.872;4.332;2023-08-01T17:04:34;23.00;99.90
39665;DHT22;26679;50.872;4.332;2023-08-01T17:07:01;22.90;99.90
39665;DHT22;26679;50.872;4.332;2023-08-01T17:09:27;23.00;99.90
39665;DHT22;26679;50.872;4.332;2023-08-01T17:11:53;23.30;99.90
39665;DHT22;26679;50.872;4.332;2023-08-01T17:14:19;23.90;99.90
39665;DHT22;26679;50.872;4.332;2023-08-01T17:16:45;23.80;99.90
39665;DHT22;26679;50.872;4.332;2023-08-01T17:19:13;24.00;99.90
39665;DHT22;26679;50.872;4.332;2023-08-01T17:21:38;23.40;99.90
39665;DHT22;26679;50.872;4.332;2023-08-01T17:24:07;22.90;99.90
39665;DHT22;26679;50.872;4.332;2023-08-01T17:26:32;23.30;99.90
39665;DHT22;26679;50.872;4.332;2023-08-01T17:28:58;23.60;99.90
39665;DHT22;26679;50.872;4.332;2023-08-01T17:31:23;23.00;99.90
39665;DHT22;26679;50.872;4.332;2023-08-01T17:33:54;23.00;99.90
39665;DHT22;26679;50.872;4.332;2023-08-01T17:36:23;23.50;99.90
39665;DHT22;26679;50.872;4.332;2023-08-01T17:38:49;23.40;99.90